Time;durP1;ratioP1;P1;durP2;ratioP2;P2;SDS_P1;SDS_P2;PMS_P1;PMS_P2;Temp;Humidity;BMP_temperature;BMP_pressure;BME280_temperature;BME280_humidity;BME280_pressure;Samples;Min_cycle;Max_cycle;Signal;HPM_P1;HPM_P2
2023/09/06 00:00:28;;;;;;;4.07;3.00;;;;;;;14.41;100.00;99126.59;5072605;28;20115;-76
2023/09/06 00:02:55;;;;;;;6.20;3.17;;;;;;;14.20;100.00;99118.75;5076039;28;20161;-76
2023/09/06 00:05:21;;;;;;;6.15;3.22;;;;;;;14.00;100.00;99097.97;5096613;28;20684;-76
2023/09/06 00:07:46;;;;;;;9.73;3.42;;;;;;;13.99;100.00;99119.94;5072318;28;20028;-75
2023/09/06 00:10:11;;;;;;;6.97;3.40;;;;;;;13.96;100.00;99136.69;5062664;28;20024;-76
2023/09/06 00:12:39;;;;;;;5.55;3.30;;;;;;;13.98;100.00;99134.59;5064006;28;20032;-75
2023/09/06 00:15:06;;;;;;;7.85;3.55;;;;;;;13.95;100.00;99154.09;5087931;28;20419;-77
2023/09/06 00:17:31;;;;;;;5.15;3.28;;;;;;;13.80;100.00;99149.75;5090015;28;20040;-75
2023/09/06 00:19:56;;;;;;;7.65;3.33;;;;;;;13.76;100.00;99145.81;5076235;28;20093;-76
2023/09/06 00:22:22;;;;;;;5.63;3.47;;;;;;;13.65;100.00;99146.47;5088455;28;20043;-75
2023/09/06 00:24:47;;;;;;;7.90;3.67;;;;;;;13.84;100.00;99171.09;5074111;28;20024;-75
2023/09/06 00:27:14;;;;;;;6.03;3.63;;;;;;;13.79;100.00;99163.56;5060914;28;20378;-76
2023/09/06 00:29:41;;;;;;;5.70;3.30;;;;;;;13.82;100.00;99172.13;5069010;28;20531;-76
2023/09/06 00:32:06;;;;;;;5.95;3.42;;;;;;;13.85;100.00;99168.13;5088013;28;20107;-76
2023/09/06 00:34:33;;;;;;;6.20;3.50;;;;;;;13.75;100.00;99146.88;5092752;28;20055;-76
2023/09/06 00:37:00;;;;;;;7.18;3.88;;;;;;;13.87;100.00;99154.34;5073548;28;20036;-76
2023/09/06 00:39:28;;;;;;;5.28;3.35;;;;;;;13.73;100.00;99148.13;5071394;28;20020;-77
2023/09/06 00:41:53;;;;;;;5.60;3.33;;;;;;;13.84;100.00;99162.94;5065363;28;20535;-77
2023/09/06 00:44:19;;;;;;;8.68;3.85;;;;;;;13.74;100.00;99156.06;5066911;28;20020;-76
2023/09/06 00:46:45;;;;;;;6.90;3.45;;;;;;;13.71;100.00;99161.09;5060266;28;20055;-77
2023/09/06 00:49:10;;;;;;;9.85;4.35;;;;;;;13.54;100.00;99133.53;5093405;28;20020;-76
2023/09/06 00:51:36;;;;;;;8.07;4.53;;;;;;;13.41;100.00;99139.84;5075363;28;20174;-74
2023/09/06 00:54:02;;;;;;;7.50;4.18;;;;;;;13.51;100.00;99156.53;5091792;28;20020;-74
2023/09/06 00:56:28;;;;;;;9.25;4.55;;;;;;;13.40;100.00;99142.78;5079884;28;20044;-74
2023/09/06 00:58:54;;;;;;;6.88;3.90;;;;;;;13.30;100.00;99122.31;5069633;28;20032;-78
2023/09/06 01:01:19;;;;;;;5.35;3.42;;;;;;;13.37;100.00;99125.03;5068755;28;20420;-77
2023/09/06 01:03:44;;;;;;;5.32;3.30;;;;;;;13.31;100.00;99124.00;5073965;28;20389;-77
2023/09/06 01:06:27;;;;;;;6.55;3.40;;;;;;;13.45;100.00;99157.41;5093571;28;20493;-74
2023/09/06 01:08:56;;;;;;;5.28;3.60;;;;;;;13.33;100.00;99150.94;5064248;28;20493;-75
2023/09/06 01:11:24;;;;;;;7.07;4.07;;;;;;;13.25;100.00;99146.53;5074607;28;20107;-75
2023/09/06 01:13:55;;;;;;;7.97;4.30;;;;;;;13.27;100.00;99171.66;5070013;28;20020;-75
2023/09/06 01:16:26;;;;;;;7.38;4.20;;;;;;;13.40;100.00;99175.41;5061469;28;20158;-75
2023/09/06 01:18:52;;;;;;;10.50;4.35;;;;;;;13.31;100.00;99167.47;5067427;28;20035;-75
2023/09/06 01:21:19;;;;;;;9.52;4.38;;;;;;;13.27;100.00;99170.81;5063586;28;20401;-75
2023/09/06 01:23:46;;;;;;;7.18;4.32;;;;;;;13.16;100.00;99158.69;5077168;28;20041;-75
2023/09/06 01:26:11;;;;;;;10.60;4.57;;;;;;;13.00;100.00;99148.28;5084843;28;20043;-76
2023/09/06 01:28:37;;;;;;;7.75;4.03;;;;;;;13.22;100.00;99160.56;5073692;28;20509;-76
2023/09/06 01:31:02;;;;;;;7.43;4.05;;;;;;;13.09;100.00;99160.56;5067643;28;20036;-76
2023/09/06 01:33:31;;;;;;;8.40;4.38;;;;;;;12.94;100.00;99129.06;5092056;28;20089;-76
2023/09/06 01:35:57;;;;;;;6.50;4.20;;;;;;;13.04;100.00;99169.34;5070735;28;20497;-75
2023/09/06 01:38:23;;;;;;;7.22;4.82;;;;;;;13.04;100.00;99165.81;5060154;28;20135;-76
2023/09/06 01:40:48;;;;;;;8.38;4.38;;;;;;;12.81;100.00;99139.94;5066034;28;20028;-76
2023/09/06 01:43:13;;;;;;;9.20;4.40;;;;;;;12.83;100.00;99148.69;5093023;28;20054;-76
2023/09/06 01:45:43;;;;;;;8.82;4.20;;;;;;;12.94;100.00;99156.22;5090853;28;20145;-76
2023/09/06 01:48:09;;;;;;;6.68;4.57;;;;;;;12.92;100.00;99152.88;5092604;28;20024;-76
2023/09/06 01:50:34;;;;;;;7.07;4.35;;;;;;;12.84;100.00;99154.97;5065564;28;20028;-76
2023/09/06 01:52:59;;;;;;;11.77;4.90;;;;;;;12.83;100.00;99140.53;5074502;28;20035;-76
2023/09/06 01:55:25;;;;;;;17.42;5.32;;;;;;;12.93;100.00;99159.97;5088870;28;20507;-76
2023/09/06 01:57:50;;;;;;;11.57;4.97;;;;;;;12.81;100.00;99134.50;5091916;28;20465;-75
2023/09/06 02:00:28;;;;;;;8.90;4.55;;;;;;;12.68;100.00;99145.34;5070149;28;20069;-75
2023/09/06 02:02:54;;;;;;;6.57;4.28;;;;;;;12.62;100.00;99149.72;5068541;28;20038;-76
2023/09/06 02:05:20;;;;;;;8.23;4.45;;;;;;;12.55;100.00;99146.19;5072473;28;20061;-76
2023/09/06 02:07:46;;;;;;;8.75;4.45;;;;;;;12.49;100.00;99155.97;5076245;28;20016;-76
2023/09/06 02:10:11;;;;;;;9.98;4.60;;;;;;;12.47;100.00;99155.38;5062469;28;20030;-76
2023/09/06 02:12:37;;;;;;;8.55;4.20;;;;;;;12.47;100.00;99158.09;5092265;28;20028;-75
2023/09/06 02:15:05;;;;;;;6.97;4.53;;;;;;;12.64;100.00;99155.78;5089535;28;20028;-76
2023/09/06 02:17:31;;;;;;;9.60;4.93;;;;;;;12.50;100.00;99173.94;5058443;28;20036;-76
2023/09/06 02:19:56;;;;;;;6.28;4.10;;;;;;;12.41;100.00;99147.22;5079841;28;20104;-76
2023/09/06 02:22:22;;;;;;;6.70;4.28;;;;;;;12.45;100.00;99152.03;5089765;28;20160;-75
2023/09/06 02:24:47;;;;;;;6.40;4.32;;;;;;;12.38;100.00;99158.47;5073781;28;20020;-76
2023/09/06 02:27:13;;;;;;;7.35;4.30;;;;;;;12.35;100.00;99148.03;5070844;28;20077;-76
2023/09/06 02:29:40;;;;;;;8.20;4.25;;;;;;;12.41;100.00;99152.63;5069205;28;20115;-75
2023/09/06 02:32:05;;;;;;;6.63;4.32;;;;;;;12.57;100.00;99157.66;5061753;28;20058;-76
2023/09/06 02:34:31;;;;;;;6.38;4.30;;;;;;;12.55;100.00;99131.75;5053442;28;20048;-76
2023/09/06 02:36:56;;;;;;;7.53;3.83;;;;;;;12.55;100.00;99135.34;5058009;28;20073;-75
2023/09/06 02:39:22;;;;;;;8.00;4.45;;;;;;;12.60;100.00;99145.53;5066203;28;20065;-76
2023/09/06 02:41:48;;;;;;;12.82;4.13;;;;;;;12.49;100.00;99142.41;5089407;28;20036;-75
2023/09/06 02:44:13;;;;;;;7.72;4.22;;;;;;;12.38;100.00;99131.34;5063910;28;20024;-76
2023/09/06 02:46:40;;;;;;;9.13;4.28;;;;;;;12.45;100.00;99135.75;5072230;28;20063;-76
2023/09/06 02:49:12;;;;;;;9.48;4.60;;;;;;;12.30;100.00;99118.81;5075519;28;20469;-76
2023/09/06 02:51:38;;;;;;;7.45;4.20;;;;;;;12.37;100.00;99146.78;5075639;28;20028;-76
2023/09/06 02:54:03;;;;;;;5.50;3.92;;;;;;;12.21;100.00;99141.75;5062019;28;20134;-75
2023/09/06 02:56:29;;;;;;;5.95;3.42;;;;;;;12.27;100.00;99154.50;5072499;28;20020;-76
2023/09/06 02:58:54;;;;;;;6.20;3.50;;;;;;;12.15;100.00;99139.84;5074769;28;20015;-75
2023/09/06 03:01:19;;;;;;;8.25;4.30;;;;;;;12.14;100.00;99149.88;5081131;28;20111;-76
2023/09/06 03:03:47;;;;;;;8.48;4.30;;;;;;;12.09;100.00;99159.66;5081841;28;20028;-76
2023/09/06 03:06:17;;;;;;;5.70;4.07;;;;;;;12.10;100.00;99164.03;5079272;28;20023;-76
2023/09/06 03:08:44;;;;;;;6.28;3.72;;;;;;;12.10;100.00;99143.19;5079169;28;20043;-76
2023/09/06 03:11:14;;;;;;;5.95;3.58;;;;;;;12.03;100.00;99132.31;5079822;28;20106;-76
2023/09/06 03:13:41;;;;;;;6.30;3.80;;;;;;;12.06;100.00;99150.91;5076348;28;20103;-76
2023/09/06 03:16:07;;;;;;;9.45;4.03;;;;;;;12.13;100.00;99152.78;5062403;28;20020;-76
2023/09/06 03:18:32;;;;;;;8.52;4.35;;;;;;;12.26;100.00;99163.66;5077867;28;20027;-76
2023/09/06 03:21:04;;;;;;;6.68;3.55;;;;;;;12.10;100.00;99156.72;5076511;28;20040;-75
2023/09/06 03:23:30;;;;;;;8.85;3.53;;;;;;;12.22;100.00;99168.66;5078459;28;20104;-75
2023/09/06 03:25:57;;;;;;;5.47;3.78;;;;;;;12.18;100.00;99166.56;5071481;28;20020;-75
2023/09/06 03:28:25;;;;;;;8.40;3.72;;;;;;;12.23;100.00;99169.50;5085534;28;20024;-75
2023/09/06 03:30:51;;;;;;;6.13;3.92;;;;;;;12.42;100.00;99163.28;5081396;28;20023;-75
2023/09/06 03:33:17;;;;;;;5.95;4.00;;;;;;;12.31;100.00;99153.03;5073060;28;20031;-75
2023/09/06 03:35:45;;;;;;;6.35;4.00;;;;;;;12.42;100.00;99163.28;5094096;28;20028;-75
2023/09/06 03:38:10;;;;;;;7.88;3.88;;;;;;;12.41;100.00;99155.34;5075426;28;20107;-76
2023/09/06 03:40:36;;;;;;;6.07;3.35;;;;;;;12.23;100.00;99147.78;5093298;28;20390;-76
2023/09/06 03:43:06;;;;;;;6.05;3.63;;;;;;;12.10;100.00;99148.59;5070123;28;20459;-75
2023/09/06 03:45:32;;;;;;;6.72;4.03;;;;;;;12.15;100.00;99162.38;5072473;28;20085;-75
2023/09/06 03:47:58;;;;;;;6.70;4.13;;;;;;;12.22;100.00;99179.53;5073581;28;20039;-74
2023/09/06 03:50:24;;;;;;;8.13;3.47;;;;;;;12.20;100.00;99162.59;5071409;28;20017;-75
2023/09/06 03:55:57;;;;;;;8.25;3.85;;;;;;;11.99;100.00;99132.94;6004389;23;21419;-76
2023/09/06 03:58:25;;;;;;;6.28;3.95;;;;;;;12.18;100.00;99150.28;4928925;28;20052;-77
2023/09/06 04:00:52;;;;;;;6.00;3.78;;;;;;;12.13;100.00;99160.91;4914867;29;20050;-78
2023/09/06 04:03:18;;;;;;;6.22;3.95;;;;;;;12.21;100.00;99163.47;4916463;29;20055;-79
2023/09/06 04:05:45;;;;;;;7.57;3.85;;;;;;;12.26;100.00;99169.94;4930876;29;20049;-73
2023/09/06 04:08:11;;;;;;;7.53;3.55;;;;;;;12.16;100.00;99169.50;4938440;29;20034;-80
2023/09/06 04:10:38;;;;;;;6.43;3.60;;;;;;;12.20;100.00;99161.78;4941294;29;20027;-77
2023/09/06 04:13:04;;;;;;;6.53;3.85;;;;;;;12.02;100.00;99155.03;4913710;29;20111;-73
2023/09/06 04:15:30;;;;;;;5.07;3.47;;;;;;;11.97;100.00;99170.25;4931864;29;20615;-72
2023/09/06 04:17:57;;;;;;;5.55;3.50;;;;;;;11.82;100.00;99164.97;4937531;29;20102;-73
2023/09/06 04:20:30;;;;;;;5.70;3.63;;;;;;;11.86;100.00;99160.84;4936958;29;20061;-73
2023/09/06 04:22:57;;;;;;;6.18;4.43;;;;;;;11.72;100.00;99164.50;4919506;29;20054;-76
2023/09/06 04:25:22;;;;;;;7.80;4.30;;;;;;;11.71;100.00;99154.69;4919847;29;20024;-77
2023/09/06 04:27:50;;;;;;;6.40;4.53;;;;;;;11.59;100.00;99166.13;4931118;29;20105;-77
2023/09/06 04:30:16;;;;;;;17.48;4.93;;;;;;;11.66;100.00;99146.31;4946976;29;20030;-78
2023/09/06 04:32:44;;;;;;;7.40;4.55;;;;;;;11.62;100.00;99171.13;4934879;29;20019;-78
2023/09/06 04:35:09;;;;;;;6.88;4.80;;;;;;;11.68;100.00;99182.19;4955335;28;20032;-79
2023/09/06 04:37:36;;;;;;;10.60;4.75;;;;;;;11.81;100.00;99177.66;4947567;29;20057;-78
2023/09/06 04:40:01;;;;;;;10.82;4.70;;;;;;;11.74;100.00;99167.88;4929311;29;20027;-80
2023/09/06 04:42:26;;;;;;;8.25;4.20;;;;;;;11.58;100.00;99150.91;4920545;29;20456;-76
2023/09/06 04:44:52;;;;;;;8.13;4.43;;;;;;;11.57;100.00;99160.06;4941224;29;20475;-77
2023/09/06 04:47:17;;;;;;;10.10;4.40;;;;;;;11.75;100.00;99185.78;4922373;29;20054;-75
2023/09/06 04:49:45;;;;;;;7.53;4.72;;;;;;;11.79;100.00;99187.06;4919739;29;20027;-77
2023/09/06 04:52:11;;;;;;;6.57;4.47;;;;;;;11.83;100.00;99196.47;4915529;29;20019;-75
2023/09/06 04:54:36;;;;;;;7.63;4.18;;;;;;;11.67;100.00;99177.84;4915957;29;20376;-77
2023/09/06 04:57:02;;;;;;;6.00;4.18;;;;;;;11.52;100.00;99148.16;4926955;29;20031;-77
2023/09/06 04:59:27;;;;;;;6.43;4.18;;;;;;;11.51;100.00;99160.03;4940959;29;20024;-79
2023/09/06 05:01:53;;;;;;;10.32;4.20;;;;;;;11.69;100.00;99200.16;4953991;28;20024;-78
2023/09/06 05:04:19;;;;;;;8.35;3.92;;;;;;;11.67;100.00;99191.38;4923377;29;20034;-77
2023/09/06 05:06:44;;;;;;;6.53;4.20;;;;;;;11.73;100.00;99185.97;4921415;29;20119;-78
2023/09/06 05:09:10;;;;;;;8.18;4.55;;;;;;;11.87;100.00;99200.47;4923961;29;20122;-84
2023/09/06 05:11:35;;;;;;;8.63;4.78;;;;;;;11.86;100.00;99163.53;4922945;29;20043;-77
2023/09/06 05:14:01;;;;;;;12.43;4.88;;;;;;;12.09;100.00;99151.53;4947048;29;20450;-77
2023/09/06 05:16:26;;;;;;;12.07;3.80;;;;;;;12.38;100.00;99172.03;4928042;29;20356;-77
2023/09/06 05:18:52;;;;;;;5.22;3.33;;;;;;;12.25;100.00;99162.00;4931020;29;20514;-77
2023/09/06 05:21:18;;;;;;;8.13;3.70;;;;;;;12.18;100.00;99162.00;4927015;29;20032;-76
2023/09/06 05:23:43;;;;;;;7.43;4.00;;;;;;;12.12;100.00;99170.09;4943328;29;20035;-74
2023/09/06 05:26:10;;;;;;;7.53;3.95;;;;;;;12.13;100.00;99171.75;4943219;29;20472;-74
2023/09/06 05:28:35;;;;;;;7.05;4.03;;;;;;;12.24;100.00;99182.88;4922484;29;20032;-74
2023/09/06 05:31:01;;;;;;;10.15;4.32;;;;;;;12.65;100.00;99195.47;4924666;29;20054;-74
2023/09/06 05:33:27;;;;;;;5.53;3.78;;;;;;;14.79;100.00;99158.38;4938424;29;20035;-73
2023/09/06 05:35:54;;;;;;;9.40;3.65;;;;;;;17.37;100.00;99143.44;4921861;29;20024;-74
2023/09/06 05:38:20;;;;;;;9.07;3.53;;;;;;;19.10;100.00;99142.38;4922383;29;20035;-74
2023/09/06 05:40:45;;;;;;;6.63;2.70;;;;;;;20.32;100.00;99124.75;4921064;29;20023;-74
2023/09/06 05:43:10;;;;;;;11.20;3.15;;;;;;;20.95;100.00;99127.00;4921322;29;20388;-74
2023/09/06 05:45:36;;;;;;;4.60;2.63;;;;;;;21.38;100.00;99139.72;4922867;29;20502;-74
2023/09/06 05:48:01;;;;;;;6.90;2.95;;;;;;;22.04;100.00;99130.13;4914084;29;20023;-74
2023/09/06 05:50:27;;;;;;;6.15;2.90;;;;;;;22.77;100.00;99132.75;4915402;29;20054;-75
2023/09/06 05:52:53;;;;;;;6.90;2.95;;;;;;;23.84;100.00;99146.44;4936221;29;20501;-78
2023/09/06 05:55:18;;;;;;;6.45;3.20;;;;;;;25.22;87.39;99146.69;4951090;28;20113;-78
2023/09/06 05:57:45;;;;;;;4.93;2.92;;;;;;;25.16;83.81;99147.84;4925665;29;20360;-81
2023/09/06 06:00:15;;;;;;;5.10;2.78;;;;;;;26.13;77.83;99135.69;4934434;29;20038;-73
2023/09/06 06:02:48;;;;;;;3.83;2.55;;;;;;;27.28;72.19;99147.25;4914164;29;20024;-72
2023/09/06 06:05:14;;;;;;;9.73;3.30;;;;;;;29.23;62.43;99148.63;4917750;28;20481;-73
2023/09/06 06:07:40;;;;;;;4.65;2.80;;;;;;;29.86;58.93;99139.13;4938581;29;20610;-72
2023/09/06 06:10:09;;;;;;;5.35;3.25;;;;;;;29.43;58.29;99148.09;4934816;29;20106;-76
2023/09/06 06:12:36;;;;;;;5.68;2.70;;;;;;;29.70;56.65;99146.28;4935255;29;20132;-81
2023/09/06 06:15:01;;;;;;;4.32;2.80;;;;;;;29.01;56.87;99153.06;4922430;29;20075;-77
2023/09/06 06:17:27;;;;;;;3.90;2.60;;;;;;;28.81;56.42;99136.84;4936839;29;20163;-75
2023/09/06 06:19:53;;;;;;;4.35;3.05;;;;;;;30.53;54.29;99140.75;4935649;29;20020;-73
2023/09/06 06:22:18;;;;;;;4.75;2.70;;;;;;;31.90;50.63;99143.97;4933667;29;20039;-74
2023/09/06 06:24:44;;;;;;;5.88;3.08;;;;;;;31.55;50.26;99122.56;4934024;29;20383;-74
2023/09/06 06:27:09;;;;;;;7.22;3.15;;;;;;;32.62;48.21;99126.09;4921457;29;20103;-74
2023/09/06 06:29:35;;;;;;;5.07;2.60;;;;;;;32.84;47.08;99133.28;4916600;29;20126;-74
2023/09/06 06:32:00;;;;;;;4.50;2.53;;;;;;;32.89;47.26;99146.28;4927511;29;20097;-75
2023/09/06 06:34:25;;;;;;;4.55;2.67;;;;;;;34.00;45.37;99145.38;4932196;29;20403;-73
2023/09/06 06:36:51;;;;;;;5.90;2.78;;;;;;;34.66;44.10;99154.69;4929974;29;20514;-73
2023/09/06 06:39:17;;;;;;;4.50;2.63;;;;;;;32.79;45.78;99155.94;4934608;29;20987;-74
2023/09/06 06:41:43;;;;;;;8.38;3.60;;;;;;;34.38;44.12;99163.88;4917866;29;20024;-76
2023/09/06 06:44:09;;;;;;;5.22;3.38;;;;;;;34.32;43.26;99156.84;4937965;29;20035;-77
2023/09/06 06:46:36;;;;;;;6.97;3.70;;;;;;;32.32;45.96;99153.28;4931218;29;20034;-75
2023/09/06 06:49:04;;;;;;;4.43;2.85;;;;;;;32.59;45.73;99167.94;4933788;29;20507;-77
2023/09/06 06:51:34;;;;;;;7.00;3.83;;;;;;;33.84;44.57;99166.91;4930103;29;20046;-77
2023/09/06 06:54:03;;;;;;;4.75;3.20;;;;;;;33.35;44.94;99166.78;4926169;29;20974;-75
2023/09/06 06:56:28;;;;;;;7.00;3.63;;;;;;;33.58;44.89;99147.59;4932360;29;20419;-76
2023/09/06 06:58:53;;;;;;;5.43;3.47;;;;;;;32.20;47.59;99161.59;4920228;29;20118;-75
2023/09/06 07:01:20;;;;;;;6.32;3.30;;;;;;;32.64;46.86;99165.75;4935686;29;20024;-75
2023/09/06 07:03:46;;;;;;;8.15;3.38;;;;;;;33.62;46.29;99170.97;4917736;29;20447;-75
2023/09/06 07:06:11;;;;;;;6.53;3.40;;;;;;;32.63;46.31;99168.94;4918365;29;20040;-75
2023/09/06 07:08:37;;;;;;;6.78;3.33;;;;;;;34.36;45.85;99169.03;4923916;29;20031;-75
2023/09/06 07:11:06;;;;;;;6.47;3.33;;;;;;;34.72;45.56;99166.53;4935406;29;20028;-75
2023/09/06 07:13:32;;;;;;;6.63;3.15;;;;;;;35.92;44.04;99173.06;4933547;29;20032;-75
2023/09/06 07:15:58;;;;;;;11.32;3.63;;;;;;;35.93;42.33;99169.06;4949130;28;20020;-75
2023/09/06 07:18:24;;;;;;;4.95;3.40;;;;;;;36.70;40.69;99176.94;4932936;29;20047;-75
2023/09/06 07:20:50;;;;;;;4.60;3.10;;;;;;;36.34;40.56;99167.69;4930032;29;20023;-76
2023/09/06 07:23:15;;;;;;;9.65;4.13;;;;;;;35.36;41.26;99173.19;4934144;29;20039;-75
2023/09/06 07:25:46;;;;;;;5.45;3.72;;;;;;;35.81;40.86;99186.06;4922032;29;20020;-75
2023/09/06 07:28:12;;;;;;;6.13;3.70;;;;;;;36.36;41.29;99182.19;4941669;29;20091;-78
2023/09/06 07:30:38;;;;;;;7.65;3.60;;;;;;;37.48;39.92;99171.28;4923004;29;20055;-77
2023/09/06 07:33:03;;;;;;;7.22;3.90;;;;;;;37.56;39.38;99172.28;4937757;29;20068;-80
2023/09/06 07:35:29;;;;;;;6.88;3.20;;;;;;;34.76;41.09;99190.72;4944056;28;20042;-79
2023/09/06 07:37:54;;;;;;;4.85;3.60;;;;;;;36.35;40.23;99174.13;4925442;29;20059;-79
2023/09/06 07:40:20;;;;;;;5.38;3.10;;;;;;;35.44;39.78;99186.25;4925307;29;20066;-78
2023/09/06 07:42:45;;;;;;;8.63;3.17;;;;;;;36.60;38.46;99184.00;4942296;29;20063;-81
2023/09/06 07:45:11;;;;;;;4.68;3.17;;;;;;;37.93;38.37;99187.44;4928515;29;20020;-78
2023/09/06 07:47:36;;;;;;;5.20;2.78;;;;;;;35.82;39.69;99176.41;4955809;28;20034;-76
2023/09/06 07:50:04;;;;;;;6.00;3.28;;;;;;;35.26;40.31;99180.16;4928586;29;20037;-74
2023/09/06 07:52:30;;;;;;;5.13;2.65;;;;;;;35.79;39.69;99175.19;4928064;29;20027;-75
2023/09/06 07:54:55;;;;;;;3.63;2.85;;;;;;;36.31;39.12;99164.78;4935059;29;20514;-77
2023/09/06 07:57:21;;;;;;;4.90;3.03;;;;;;;39.05;37.03;99170.16;4936112;29;20394;-75
2023/09/06 07:59:46;;;;;;;5.60;2.85;;;;;;;38.87;36.79;99175.56;4935110;29;20024;-75
2023/09/06 08:02:11;;;;;;;5.57;2.38;;;;;;;39.44;36.77;99175.47;4920680;29;20051;-76
2023/09/06 08:04:37;;;;;;;3.90;2.70;;;;;;;38.21;36.51;99174.19;4922744;29;20039;-75
2023/09/06 08:07:03;;;;;;;3.77;2.90;;;;;;;39.71;34.82;99161.97;4941514;28;20260;-75
2023/09/06 08:09:29;;;;;;;3.97;2.78;;;;;;;40.07;34.86;99165.13;4937517;29;20274;-79
2023/09/06 08:11:54;;;;;;;3.75;2.75;;;;;;;39.63;34.94;99163.09;4922605;29;20032;-78
2023/09/06 08:14:19;;;;;;;4.07;2.30;;;;;;;39.88;34.84;99169.03;4937784;29;20047;-78
2023/09/06 08:16:45;;;;;;;3.17;2.60;;;;;;;39.00;34.57;99170.50;4920532;29;20808;-79
2023/09/06 08:19:10;;;;;;;3.35;2.78;;;;;;;36.96;36.25;99181.94;4937924;29;20027;-79
2023/09/06 08:21:37;;;;;;;4.75;2.78;;;;;;;36.36;37.58;99170.13;4918543;29;20066;-75
2023/09/06 08:24:02;;;;;;;6.00;2.60;;;;;;;37.82;36.49;99177.16;4936587;29;20028;-77
2023/09/06 08:26:28;;;;;;;3.75;2.50;;;;;;;39.77;35.25;99191.56;4935956;29;20031;-76
2023/09/06 08:28:54;;;;;;;4.15;2.60;;;;;;;38.62;35.70;99185.72;4951128;28;20046;-75
2023/09/06 08:31:19;;;;;;;5.03;2.72;;;;;;;39.86;34.37;99186.41;4937446;29;20028;-76
2023/09/06 08:33:46;;;;;;;8.38;3.72;;;;;;;37.38;36.98;99180.38;4923434;29;20031;-77
2023/09/06 08:36:11;;;;;;;8.55;3.00;;;;;;;38.79;36.41;99187.97;4940023;29;20379;-78
2023/09/06 08:38:37;;;;;;;5.65;2.25;;;;;;;39.17;35.91;99181.22;4934939;29;20110;-78
2023/09/06 08:41:05;;;;;;;4.15;2.50;;;;;;;40.80;33.88;99192.78;4935972;29;20024;-74
2023/09/06 08:43:35;;;;;;;3.22;2.55;;;;;;;39.77;34.39;99190.75;4941327;29;20031;-72
2023/09/06 08:46:11;;;;;;;4.90;2.42;;;;;;;38.14;35.46;99177.72;4936059;29;20023;-72
2023/09/06 08:48:37;;;;;;;4.95;2.70;;;;;;;39.03;34.69;99194.38;4930256;29;20032;-73
2023/09/06 08:51:04;;;;;;;2.90;2.30;;;;;;;40.27;34.17;99114.66;4931246;29;20096;-75
2023/09/06 08:53:32;;;;;;;3.22;2.28;;;;;;;39.88;34.26;99178.34;4934263;29;20436;-74
2023/09/06 08:55:59;;;;;;;5.22;2.38;;;;;;;40.29;34.98;99194.47;4929752;29;20115;-75
2023/09/06 08:58:24;;;;;;;5.28;2.47;;;;;;;40.09;33.54;99191.88;4940876;29;20050;-81
2023/09/06 09:00:50;;;;;;;2.83;2.05;;;;;;;41.17;33.16;99181.19;4922328;29;20024;-77
2023/09/06 09:03:15;;;;;;;5.65;2.17;;;;;;;39.43;34.22;99207.78;4920586;29;20023;-74
2023/09/06 09:05:40;;;;;;;6.97;2.60;;;;;;;39.42;34.53;99173.00;4933911;29;20472;-75
2023/09/06 09:08:08;;;;;;;2.95;2.47;;;;;;;41.66;32.27;99181.72;4935685;29;20279;-75
2023/09/06 09:10:33;;;;;;;3.80;2.40;;;;;;;41.65;32.45;99197.97;4932837;29;20063;-73
2023/09/06 09:12:59;;;;;;;5.93;2.47;;;;;;;40.51;33.22;99195.44;4937311;29;20716;-70
2023/09/06 09:15:27;;;;;;;3.38;2.55;;;;;;;40.77;33.41;99185.88;4917955;29;20051;-72
2023/09/06 09:17:53;;;;;;;;;;;;;;;42.07;33.54;99189.91;4919837;29;20028;-76
2023/09/06 09:20:19;;;;;;;3.83;2.33;;;;;;;42.49;32.41;99183.34;4938106;29;19914;-80
2023/09/06 09:22:45;;;;;;;3.90;2.45;;;;;;;39.16;35.56;99198.56;4921967;29;20523;-80
2023/09/06 09:25:14;;;;;;;3.40;2.15;;;;;;;41.19;33.15;99181.63;4920657;29;20087;-75
2023/09/06 09:27:56;;;;;;;4.13;2.00;;;;;;;42.15;32.68;99180.13;4918803;29;20027;-74
2023/09/06 09:30:21;;;;;;;3.72;2.30;;;;;;;43.60;31.83;99184.94;4921204;29;20036;-75
2023/09/06 09:32:48;;;;;;;4.00;2.25;;;;;;;42.24;32.92;99174.88;4921495;29;20031;-74
2023/09/06 09:35:13;;;;;;;4.45;2.20;;;;;;;41.38;32.99;99172.72;4923682;29;20027;-72
2023/09/06 09:37:40;;;;;;;4.22;2.38;;;;;;;41.81;32.68;99177.69;4919025;29;20431;-75
2023/09/06 09:40:20;;;;;;;2.78;2.03;;;;;;;42.48;32.01;99170.38;4934794;29;20063;-76
2023/09/06 09:42:56;;;;;;;3.47;2.28;;;;;;;41.56;33.03;99160.63;4955834;28;20054;-75
2023/09/06 09:45:25;;;;;;;5.45;2.22;;;;;;;40.94;33.58;99170.94;4940925;28;20085;-75
2023/09/06 09:47:54;;;;;;;2.92;2.03;;;;;;;40.34;34.51;99167.78;4917970;29;20035;-75
2023/09/06 09:50:29;;;;;;;4.18;2.10;;;;;;;41.43;33.87;99160.16;4931987;29;20032;-75
2023/09/06 09:52:55;;;;;;;3.28;2.50;;;;;;;42.35;32.43;99157.81;4935455;29;20070;-78
2023/09/06 09:55:27;;;;;;;4.05;2.25;;;;;;;41.90;32.34;99163.88;4914746;29;20028;-74
2023/09/06 09:57:54;;;;;;;3.20;2.50;;;;;;;42.24;32.43;99160.66;4934158;29;20091;-78
2023/09/06 10:00:27;;;;;;;2.90;2.20;;;;;;;42.62;32.81;99141.84;4929729;29;20392;-75
2023/09/06 10:02:56;;;;;;;2.83;2.13;;;;;;;43.17;32.74;99140.44;4935189;29;20034;-75
2023/09/06 10:05:21;;;;;;;3.05;1.90;;;;;;;43.58;32.83;99147.53;4914914;29;20016;-75
2023/09/06 10:07:48;;;;;;;5.38;2.40;;;;;;;44.91;32.01;99153.59;4919763;29;20133;-75
2023/09/06 10:10:13;;;;;;;5.35;2.20;;;;;;;45.33;31.30;99159.97;4934997;29;20055;-75
2023/09/06 10:12:49;;;;;;;2.83;2.00;;;;;;;45.70;30.70;99141.84;4918005;29;20031;-74
2023/09/06 10:15:15;;;;;;;2.25;2.05;;;;;;;44.41;30.60;99134.16;4935800;29;20032;-75
2023/09/06 10:17:41;;;;;;;2.67;2.00;;;;;;;44.06;31.51;99156.09;4935369;29;20947;-75
2023/09/06 10:20:12;;;;;;;3.83;1.90;;;;;;;44.35;30.60;99148.06;4940630;29;20027;-76
2023/09/06 10:22:43;;;;;;;2.65;1.85;;;;;;;42.19;32.83;99147.66;4947401;29;20015;-78
2023/09/06 10:25:10;;;;;;;2.40;2.00;;;;;;;44.04;31.34;99140.66;4930961;29;20577;-74
2023/09/06 10:27:44;;;;;;;2.63;2.05;;;;;;;43.61;30.48;99144.66;4932760;29;20039;-74
2023/09/06 10:30:11;;;;;;;3.00;2.15;;;;;;;42.82;32.11;99139.38;4929623;29;20364;-75
2023/09/06 10:32:43;;;;;;;3.20;2.17;;;;;;;41.91;31.91;99141.97;4936069;29;20531;-75
2023/09/06 10:35:26;;;;;;;3.58;2.30;;;;;;;42.59;31.29;99136.19;4932781;29;20090;-75
2023/09/06 10:38:10;;;;;;;4.10;2.50;;;;;;;42.60;31.56;99143.50;4933506;29;20028;-75
2023/09/06 10:40:49;;;;;;;6.80;1.88;;;;;;;43.90;30.32;99139.53;4933709;29;20039;-74
2023/09/06 10:43:24;;;;;;;3.13;2.10;;;;;;;42.81;30.39;99143.44;4934549;29;20027;-74
2023/09/06 10:45:56;;;;;;;8.05;2.22;;;;;;;41.31;31.06;99138.63;4930612;29;20111;-74
2023/09/06 10:48:23;;;;;;;2.33;1.70;;;;;;;42.50;31.07;99130.13;4927965;29;20039;-75
2023/09/06 10:51:04;;;;;;;2.97;1.90;;;;;;;42.85;31.76;99134.91;4932917;29;20395;-74
2023/09/06 10:53:30;;;;;;;3.58;2.22;;;;;;;42.76;29.82;99129.66;4917638;29;20036;-74
2023/09/06 10:55:56;;;;;;;3.20;1.98;;;;;;;42.60;30.93;99123.56;4932697;29;20024;-74
2023/09/06 10:58:23;;;;;;;4.30;2.03;;;;;;;44.17;29.79;99119.72;4932752;29;20059;-74
2023/09/06 11:01:09;;;;;;;2.78;2.33;;;;;;;45.06;29.24;99123.56;4919038;29;20027;-74
2023/09/06 11:03:35;;;;;;;4.50;1.88;;;;;;;43.16;29.84;99121.72;4916816;29;20039;-74
2023/09/06 11:06:04;;;;;;;3.47;2.35;;;;;;;42.62;30.78;99123.97;4932622;28;20452;-74
2023/09/06 11:08:31;;;;;;;7.65;2.50;;;;;;;42.88;32.19;99119.84;4943193;29;20419;-71
2023/09/06 11:11:09;;;;;;;6.30;2.10;;;;;;;43.01;32.24;99112.44;4926002;29;20090;-72
2023/09/06 11:13:37;;;;;;;2.97;2.10;;;;;;;42.83;32.50;99123.91;4928246;29;20032;-72
2023/09/06 11:16:05;;;;;;;2.95;2.00;;;;;;;44.27;30.98;99117.19;4932690;29;20359;-71
2023/09/06 11:18:32;;;;;;;2.85;2.17;;;;;;;44.12;30.27;99111.63;4932572;29;20023;-71
2023/09/06 11:20:59;;;;;;;3.03;1.90;;;;;;;44.09;31.01;99109.63;4939338;29;20496;-72
2023/09/06 11:23:24;;;;;;;3.40;2.27;;;;;;;44.30;30.82;99099.22;4931272;29;20115;-72
2023/09/06 11:25:58;;;;;;;3.97;2.08;;;;;;;44.30;30.87;99104.94;4937056;29;20107;-74
2023/09/06 11:28:28;;;;;;;2.20;2.00;;;;;;;45.30;30.23;99103.66;4938998;29;20035;-74
2023/09/06 11:30:54;;;;;;;4.13;1.88;;;;;;;44.35;30.07;99096.72;4920771;29;20020;-74